»·PEaware :: N766SB KBLH-KSAN

N766SB :: KBLH-KSAN

FLIGHT INFORMATION

Flight Status: Arrived
Operator: Privately registered:
United States
More flights under this callsign
Pilot: Charles S. (11412)
Aircraft: Unknown
(SF50)
More flights by this aircraft type
Origin: KBLH Blythe
United States
Destination: KSAN San Diego Intl-Lindbergh
United States
More flights between these airports :: More routes between these airports
Route: +V460 MZB
File this flight plan on PilotEdge
Remarks:
Altitude:
(Current/Filed)
20,000ft
Speed:
(Current/Filed)
115kts
Departed: 16-Dec-17 03:00 PM
Arrived: 16-Dec-17 04:00 PM
Distance/Time
Traveled:
135nm/1:00
Distance/Time
To Go:
Arrived

Flight Plot

Page will automatically refresh every two minutes.

Flight plan parsing failed; only flown route is shown


Map Options




Map Legend


Flown Route
Filed Route
Departure Airport
Arrival Airport
Navaid (VOR, NDB)
Fix

Horizontal Profiles

Position Reports

Time Latitude Longitude Heading Altitude Ground
Speed
16-Dec-17 14:46 33.614152 -114.714292 359 393ft 0kts
16-Dec-17 14:47 33.614152 -114.714292 359 393ft 0kts
16-Dec-17 14:48 33.614152 -114.714292 359 393ft 0kts
16-Dec-17 14:49 33.614152 -114.714292 359 393ft 0kts
16-Dec-17 14:50 33.614152 -114.714292 359 393ft 0kts
16-Dec-17 14:51 33.614152 -114.714292 359 393ft 0kts
16-Dec-17 14:52 33.614152 -114.714292 359 393ft 0kts
16-Dec-17 14:53 33.614152 -114.714292 359 393ft 0kts
16-Dec-17 14:54 33.614152 -114.714292 359 393ft 0kts
16-Dec-17 14:55 33.614152 -114.714292 359 393ft 0kts
16-Dec-17 14:56 33.614152 -114.714292 359 393ft 0kts
16-Dec-17 14:57 33.614152 -114.714292 359 393ft 0kts
16-Dec-17 14:58 33.614152 -114.714292 359 393ft 0kts
16-Dec-17 14:59 33.614152 -114.714292 359 393ft 0kts
16-Dec-17 15:00 33.614152 -114.714292 359 393ft 0kts
16-Dec-17 15:01 33.614152 -114.714292 359 393ft 0kts
16-Dec-17 15:02 33.614104 -114.715733 280 393ft 9kts
16-Dec-17 15:03 33.614130 -114.716042 266 393ft 0kts
16-Dec-17 15:04 33.614130 -114.716042 266 393ft 0kts
16-Dec-17 15:05 33.614968 -114.716797 357 395ft 38kts
16-Dec-17 15:06 33.649421 -114.720738 327 1845ft 173kts
16-Dec-17 15:07 33.623092 -114.746137 174 3692ft 171kts
16-Dec-17 15:08 33.596178 -114.779669 268 5046ft 164kts
16-Dec-17 15:09 33.597431 -114.831850 270 6443ft 158kts
16-Dec-17 15:10 33.598948 -114.886300 269 7550ft 168kts
16-Dec-17 15:11 33.600425 -114.943163 269 8615ft 173kts
16-Dec-17 15:12 33.601954 -115.001350 269 9670ft 175kts
16-Dec-17 15:13 33.603496 -115.059397 270 10717ft 174kts
16-Dec-17 15:14 33.605094 -115.116667 272 11774ft 171kts
16-Dec-17 15:15 33.606657 -115.172615 273 12844ft 166kts
16-Dec-17 15:16 33.608099 -115.226895 273 13929ft 158kts
16-Dec-17 15:17 33.609411 -115.278600 273 14869ft 157kts
16-Dec-17 15:18 33.610703 -115.331788 273 15648ft 164kts
16-Dec-17 15:19 33.611926 -115.382732 272 16362ft 169kts
16-Dec-17 15:20 33.612729 -115.418042 272 16839ft 171kts
16-Dec-17 15:21 33.613519 -115.452365 272 17297ft 172kts
16-Dec-17 15:22 33.614256 -115.484983 272 17730ft 172kts
16-Dec-17 15:23 33.615068 -115.520401 272 18197ft 172kts
16-Dec-17 15:24 33.616206 -115.571270 272 18871ft 170kts
16-Dec-17 15:25 33.617258 -115.618632 272 19438ft 172kts
16-Dec-17 15:26 33.618171 -115.666259 270 19865ft 226kts
16-Dec-17 15:27 33.619082 -115.723783 227 19299ft 124kts
16-Dec-17 15:28 33.607912 -115.747812 276 18980ft 199kts
16-Dec-17 15:29 33.588502 -115.791550 255 19485ft 243kts
16-Dec-17 15:30 33.571195 -115.841692 239 19982ft 263kts
16-Dec-17 15:31 33.550832 -115.880443 236 19964ft 260kts
16-Dec-17 15:32 33.529631 -115.917921 235 19964ft 257kts
16-Dec-17 15:33 33.507499 -115.956336 235 19964ft 255kts
16-Dec-17 15:34 33.483400 -115.997994 235 19964ft 254kts
16-Dec-17 15:35 33.453905 -116.048843 234 19972ft 253kts
16-Dec-17 15:36 33.422614 -116.102686 234 19979ft 261kts
16-Dec-17 15:37 33.397028 -116.146582 234 19966ft 268kts
16-Dec-17 15:38 33.369487 -116.193697 234 19955ft 272kts
16-Dec-17 15:39 33.329686 -116.260628 235 19944ft 275kts
16-Dec-17 15:40 33.290583 -116.328726 235 19960ft 276kts
16-Dec-17 15:41 33.250533 -116.397345 234 19962ft 275kts
16-Dec-17 15:42 33.210949 -116.464875 235 18885ft 251kts
16-Dec-17 15:43 33.172210 -116.530813 234 17768ft 241kts
16-Dec-17 15:44 33.129455 -116.582759 190 16847ft 238kts
16-Dec-17 15:45 33.073998 -116.591735 185 15936ft 240kts
16-Dec-17 15:46 33.028724 -116.596702 185 15187ft 236kts
16-Dec-17 15:47 32.992529 -116.600541 186 14545ft 224kts
16-Dec-17 15:48 32.959362 -116.604029 185 13931ft 214kts
16-Dec-17 15:49 32.925281 -116.607570 186 13272ft 207kts
16-Dec-17 15:50 32.891445 -116.621277 200 12536ft 201kts
16-Dec-17 15:51 32.855140 -116.646452 219 11647ft 198kts
16-Dec-17 15:52 32.826824 -116.675794 218 10708ft 210kts
16-Dec-17 15:53 32.794678 -116.709424 218 9593ft 208kts
16-Dec-17 15:54 32.765974 -116.739779 218 8575ft 203kts
16-Dec-17 15:55 32.737432 -116.770165 219 7544ft 199kts
16-Dec-17 15:56 32.711396 -116.798142 219 6546ft 186kts
16-Dec-17 15:57 32.678994 -116.833280 219 5250ft 177kts
16-Dec-17 15:58 32.654666 -116.873052 265 4961ft 134kts
16-Dec-17 15:59 32.669216 -116.929546 280 4984ft 229kts
16-Dec-17 16:00 32.685228 -116.993753 280 3704ft 200kts
16-Dec-17 16:01 32.699260 -117.050452 280 2231ft 178kts
16-Dec-17 16:02 32.709240 -117.090627 275 1628ft 115kts
16-Dec-17 16:03 32.717879 -117.125952 275 1223ft 115kts
16-Dec-17 16:04 32.725042 -117.154615 275 565ft 91kts
16-Dec-17 16:05 32.731381 -117.180794 274 72ft 88kts
16-Dec-17 16:06 32.734590 -117.189248 100 17ft 17kts
16-Dec-17 16:07 32.733184 -117.183501 100 17ft 22kts
16-Dec-17 16:08 32.731947 -117.177052 60 21ft 0kts

Navigation Log

Ident Type
Flight plan parsing failed, navigation log unavailable